Time;durP1;ratioP1;P1;durP2;ratioP2;P2;SDS_P1;SDS_P2;PMS_P1;PMS_P2;Temp;Humidity;BMP_temperature;BMP_pressure;BME280_temperature;BME280_humidity;BME280_pressure;Samples;Min_cycle;Max_cycle;Signal;HPM_P1;HPM_P2
2023/04/30 00:01:03;;;;;;;;;10.25;10.25;;;;;16.55;86.75;98984.44;5073703;28;45428;-82
2023/04/30 00:03:28;;;;;;;;;12.25;9.75;;;;;16.46;86.72;98985.88;5073518;28;45467;-83
2023/04/30 00:05:53;;;;;;;;;11.50;10.25;;;;;16.39;87.10;98984.59;5074711;27;46101;-83
2023/04/30 00:08:19;;;;;;;;;8.00;7.50;;;;;16.34;87.42;98976.91;5075155;27;45439;-82
2023/04/30 00:10:45;;;;;;;;;14.00;12.50;;;;;16.30;87.59;98974.56;5073544;28;45529;-83
2023/04/30 00:13:12;;;;;;;;;12.25;11.00;;;;;16.28;87.63;98979.13;5074814;28;45589;-82
2023/04/30 00:15:38;;;;;;;;;10.00;8.00;;;;;16.29;87.72;98979.03;5073313;28;46606;-82
2023/04/30 00:18:05;;;;;;;;;9.00;7.50;;;;;16.30;87.61;98974.56;5074740;27;45293;-82
2023/04/30 00:20:31;;;;;;;;;9.00;8.50;;;;;16.29;87.96;98968.38;5074564;27;45417;-82
2023/04/30 00:22:56;;;;;;;;;11.25;10.00;;;;;16.30;87.75;98966.56;5074125;28;45325;-82
2023/04/30 00:25:23;;;;;;;;;7.25;7.25;;;;;16.31;87.76;98969.13;5074052;27;46393;-82
2023/04/30 00:27:48;;;;;;;;;11.50;11.50;;;;;16.32;87.60;98970.84;5073846;28;45527;-82
2023/04/30 00:30:14;;;;;;;;;11.50;10.00;;;;;16.31;87.60;98977.13;5072969;28;45524;-82
2023/04/30 00:32:39;;;;;;;;;9.25;9.00;;;;;16.25;87.79;98971.38;5074134;28;45450;-81
2023/04/30 00:35:05;;;;;;;;;10.00;6.00;;;;;16.19;87.62;98961.97;5075001;28;45521;-81
2023/04/30 00:37:31;;;;;;;;;9.25;9.25;;;;;16.18;87.30;98964.72;5073728;27;45353;-82
2023/04/30 00:39:56;;;;;;;;;9.25;9.25;;;;;16.17;86.74;98963.88;5073177;28;45599;-81
2023/04/30 00:42:22;;;;;;;;;6.00;5.50;;;;;16.17;86.80;98955.88;5074411;28;45367;-81
2023/04/30 00:44:47;;;;;;;;;9.75;7.25;;;;;16.17;87.48;98953.22;5074457;27;45434;-81
2023/04/30 00:47:12;;;;;;;;;10.50;8.25;;;;;16.17;87.92;98947.91;5074507;28;45334;-82
2023/04/30 00:49:38;;;;;;;;;8.00;8.00;;;;;16.15;87.67;98952.47;5074752;27;45595;-81
2023/04/30 00:52:04;;;;;;;;;8.25;8.25;;;;;16.15;86.39;98954.28;5074455;27;45449;-81
2023/04/30 00:54:29;;;;;;;;;12.50;12.50;;;;;16.16;86.68;98950.66;5074344;28;45380;-81
2023/04/30 00:56:54;;;;;;;;;6.00;6.00;;;;;16.14;86.28;98945.44;5074425;27;45342;-81
2023/04/30 00:59:20;;;;;;;;;8.50;7.00;;;;;16.17;86.95;98955.88;5073095;28;45515;-81
2023/04/30 01:01:46;;;;;;;;;35.00;31.67;;;;;16.17;86.95;98955.03;5074183;28;45341;-81
2023/04/30 01:04:11;;;;;;;;;16.25;16.25;;;;;16.15;86.77;98951.63;5072444;28;47898;-82
2023/04/30 01:06:37;;;;;;;;;14.50;14.00;;;;;16.14;87.07;98950.75;5073750;28;45594;-81
2023/04/30 01:09:02;;;;;;;;;10.50;10.50;;;;;16.13;86.86;98957.03;5074190;28;45384;-81
2023/04/30 01:11:51;;;;;;;;;6.75;6.75;;;;;16.12;87.08;98952.66;5074374;27;45321;-82
2023/04/30 01:14:28;;;;;;;;;10.50;10.00;;;;;16.11;86.52;98948.31;5061174;28;45870;-82
2023/04/30 01:17:07;;;;;;;;;10.20;9.60;;;;;16.10;85.91;98951.91;5073075;28;45447;-82
2023/04/30 01:19:43;;;;;;;;;7.50;7.50;;;;;16.07;85.13;98946.81;5074076;28;45513;-82
2023/04/30 01:22:24;;;;;;;;;11.25;9.00;;;;;16.05;85.10;98949.56;5074016;28;45602;-82
2023/04/30 01:25:04;;;;;;;;;8.00;8.00;;;;;16.05;85.19;98951.38;5074285;27;46201;-83
2023/04/30 01:28:00;;;;;;;;;10.20;9.40;;;;;16.05;85.30;98951.38;5069639;28;45431;-83
2023/04/30 01:30:26;;;;;;;;;9.20;7.60;;;;;16.07;85.04;98956.59;5069328;28;45345;-82
2023/04/30 01:32:52;;;;;;;;;8.75;8.75;;;;;16.07;85.29;98960.13;5066224;28;45928;-82
2023/04/30 01:35:17;;;;;;;;;6.00;5.50;;;;;16.08;85.03;98960.97;5088751;27;47239;-82
2023/04/30 01:38:09;;;;;;;;;8.75;7.50;;;;;16.04;84.42;98953.19;5072955;27;45439;-82
2023/04/30 01:40:35;;;;;;;;;8.25;7.25;;;;;16.00;84.47;98946.34;5063563;28;45460;-82
2023/04/30 01:43:17;;;;;;;;;9.25;9.25;;;;;15.99;84.43;98952.63;5071898;28;45466;-82
2023/04/30 01:45:54;;;;;;;;;8.25;8.25;;;;;15.97;84.17;98957.19;5073112;28;46444;-82
2023/04/30 01:48:29;;;;;;;;;10.00;7.20;;;;;15.97;84.16;98959.00;5060762;28;45412;-82
2023/04/30 01:51:05;;;;;;;;;7.00;7.00;;;;;15.96;84.11;98960.78;5077598;27;45398;-82
2023/04/30 01:53:38;;;;;;;;;7.75;7.25;;;;;15.95;84.38;98955.56;5077372;27;45459;-82
2023/04/30 01:56:08;;;;;;;;;13.75;11.75;;;;;15.95;84.36;98953.75;5077206;28;45487;-82
2023/04/30 01:58:34;;;;;;;;;6.00;6.00;;;;;15.92;84.23;98956.63;5077362;27;45318;-82
2023/04/30 02:01:00;;;;;;;;;6.50;6.25;;;;;15.90;84.32;98958.56;5077011;28;45296;-82
2023/04/30 02:03:25;;;;;;;;;11.25;7.00;;;;;15.86;84.17;98957.03;5077071;28;45356;-82
2023/04/30 02:05:52;;;;;;;;;8.25;6.00;;;;;15.83;84.68;98949.25;5076767;27;46067;-82
2023/04/30 02:08:17;;;;;;;;;9.60;7.60;;;;;15.78;85.14;98946.03;5077088;27;45365;-82
2023/04/30 02:10:42;;;;;;;;;6.00;6.00;;;;;15.75;86.00;98948.06;5077060;28;45412;-82
2023/04/30 02:13:08;;;;;;;;;9.00;9.00;;;;;15.73;85.61;98949.94;5076878;27;45345;-82
2023/04/30 02:15:33;;;;;;;;;6.75;6.75;;;;;15.68;85.15;98951.09;5076397;27;45406;-81
2023/04/30 02:17:58;;;;;;;;;6.50;6.50;;;;;15.64;84.95;98943.41;5076643;28;45484;-82
2023/04/30 02:20:24;;;;;;;;;7.00;7.00;;;;;15.60;85.10;98949.84;5076360;28;45371;-82
2023/04/30 02:22:50;;;;;;;;;6.00;6.00;;;;;15.57;85.48;98950.94;5074454;28;45584;-82
2023/04/30 02:25:15;;;;;;;;;7.75;7.75;;;;;15.57;86.02;98948.25;5075429;27;46342;-82
2023/04/30 02:27:41;;;;;;;;;7.75;7.00;;;;;15.57;85.89;98950.06;5074509;28;45464;-82
2023/04/30 02:30:07;;;;;;;;;6.50;6.50;;;;;15.56;86.04;98953.69;5075921;27;45398;-81
2023/04/30 02:32:32;;;;;;;;;6.75;6.00;;;;;15.55;85.35;98954.59;5077135;27;45337;-82
2023/04/30 02:34:57;;;;;;;;;7.75;7.00;;;;;15.54;84.91;98955.53;5074569;28;46853;-82
2023/04/30 02:37:23;;;;;;;;;8.00;6.75;;;;;15.51;84.76;98951.25;5091767;27;45436;-82
2023/04/30 02:39:49;;;;;;;;;10.00;8.00;;;;;15.53;84.87;98949.38;5075972;27;45386;-82
2023/04/30 02:42:14;;;;;;;;;6.50;6.25;;;;;15.52;84.87;98954.78;5076084;28;45309;-82
2023/04/30 02:44:40;;;;;;;;;7.50;7.50;;;;;15.49;84.32;98953.16;5075274;28;48180;-82
2023/04/30 02:47:05;;;;;;;;;8.25;7.75;;;;;15.49;84.34;98950.50;5076310;27;45442;-82
2023/04/30 02:49:30;;;;;;;;;7.50;7.50;;;;;15.51;84.17;98953.06;5074817;28;45376;-82
2023/04/30 02:51:56;;;;;;;;;8.25;8.25;;;;;15.52;83.90;98960.94;5076350;27;45410;-82
2023/04/30 02:54:21;;;;;;;;;8.00;7.75;;;;;15.51;84.30;98953.06;5074687;28;47823;-82
2023/04/30 02:56:47;;;;;;;;;7.00;7.00;;;;;15.51;84.08;98955.72;5074608;28;45358;-82
2023/04/30 02:59:12;;;;;;;;;9.75;8.75;;;;;15.49;83.30;98963.78;5073994;28;45401;-82
2023/04/30 03:01:38;;;;;;;;;7.50;7.50;;;;;15.46;82.88;98957.81;5074850;28;45398;-82
2023/04/30 03:04:03;;;;;;;;;7.25;7.25;;;;;15.45;83.09;98961.41;5076370;27;45666;-82
2023/04/30 03:06:30;;;;;;;;;8.25;7.50;;;;;15.43;83.20;98961.50;5074456;28;45646;-82
2023/04/30 03:08:55;;;;;;;;;6.25;6.25;;;;;15.39;82.92;98951.19;5074674;28;45446;-82
2023/04/30 03:11:21;;;;;;;;;5.25;5.25;;;;;15.39;82.70;98959.16;5088579;27;45583;-81
2023/04/30 03:13:51;;;;;;;;;6.75;6.75;;;;;15.38;82.54;98960.09;5073143;28;46532;-82
2023/04/30 03:16:18;;;;;;;;;7.00;7.00;;;;;15.36;82.43;98952.22;5075916;28;45360;-82
2023/04/30 03:18:44;;;;;;;;;7.00;6.80;;;;;15.34;81.79;98951.47;5074587;28;45361;-81
2023/04/30 03:21:10;;;;;;;;;8.50;6.75;;;;;15.31;81.71;98956.97;5082649;27;45984;-82
2023/04/30 03:23:35;;;;;;;;;6.25;6.25;;;;;15.28;81.79;98951.84;5075664;27;45573;-82
2023/04/30 03:26:01;;;;;;;;;8.50;7.25;;;;;15.26;81.48;98951.06;5075446;27;45453;-82
2023/04/30 03:28:26;;;;;;;;;6.00;5.00;;;;;15.24;81.41;98950.34;5075362;28;45345;-82
2023/04/30 03:30:51;;;;;;;;;8.25;7.75;;;;;15.25;81.58;98954.66;5071006;28;45513;-82
2023/04/30 03:33:17;;;;;;;;;7.00;7.00;;;;;15.21;81.44;98956.69;5073555;28;45727;-82
2023/04/30 03:35:42;;;;;;;;;7.00;7.00;;;;;15.16;83.39;98955.25;5073457;27;45383;-81
2023/04/30 03:38:08;;;;;;;;;6.00;6.00;;;;;15.10;82.17;98955.63;5074450;28;45364;-82
2023/04/30 03:40:33;;;;;;;;;8.75;8.00;;;;;15.05;82.42;98968.34;5074791;27;45380;-81
2023/04/30 03:42:59;;;;;;;;;8.75;6.75;;;;;14.95;81.92;98966.22;5074892;27;46325;-81
2023/04/30 03:45:24;;;;;;;;;7.00;6.50;;;;;14.90;81.93;98964.81;5075224;28;45436;-81
2023/04/30 03:47:51;;;;;;;;;8.25;8.25;;;;;14.86;81.54;98961.47;5075705;28;45422;-81
2023/04/30 03:50:17;;;;;;;;;8.75;8.75;;;;;14.83;81.64;98948.41;5075467;27;45376;-81
2023/04/30 03:52:43;;;;;;;;;9.00;8.75;;;;;14.83;81.56;98947.53;5094127;27;47935;-81
2023/04/30 03:55:09;;;;;;;;;11.00;9.25;;;;;14.83;81.66;98952.84;5075077;28;45942;-81
2023/04/30 03:57:35;;;;;;;;;9.50;9.50;;;;;14.81;82.27;98963.56;5087696;27;45422;-81
2023/04/30 04:00:00;;;;;;;;;8.50;7.50;;;;;14.76;83.23;98959.44;5098954;27;45516;-81
2023/04/30 04:02:25;;;;;;;;;10.50;8.75;;;;;14.69;82.59;98979.34;5073464;28;47900;-81
2023/04/30 04:04:51;;;;;;;;;7.00;7.00;;;;;14.66;81.77;98960.00;5075006;27;45464;-80
2023/04/30 04:07:17;;;;;;;;;8.00;8.00;;;;;14.65;81.87;98971.56;5073847;28;45511;-80
2023/04/30 04:09:43;;;;;;;;;11.00;11.00;;;;;14.60;81.49;98980.72;5074871;27;45505;-80
2023/04/30 04:12:08;;;;;;;;;11.00;10.00;;;;;14.53;82.26;98974.94;5075881;27;48068;-81
2023/04/30 04:14:34;;;;;;;;;11.00;11.00;;;;;14.48;82.18;98977.00;5073828;28;45395;-81
2023/04/30 04:17:00;;;;;;;;;7.50;7.50;;;;;14.45;82.91;98973.69;5072700;28;45602;-81
2023/04/30 04:19:26;;;;;;;;;9.50;8.75;;;;;14.39;82.16;98980.19;5074761;28;45571;-81
2023/04/30 04:21:51;;;;;;;;;11.25;10.25;;;;;14.37;82.29;98983.84;5074604;28;46123;-80
2023/04/30 04:24:17;;;;;;;;;14.00;13.00;;;;;14.31;82.64;98985.06;5074999;27;45431;-80
2023/04/30 04:26:42;;;;;;;;;14.25;13.00;;;;;14.28;82.60;98985.22;5074912;27;45322;-81
2023/04/30 04:29:11;;;;;;;;;13.00;11.50;;;;;14.25;82.73;98990.69;5074828;27;45510;-81
2023/04/30 04:31:37;;;;;;;;;9.50;9.00;;;;;14.22;82.45;98980.28;5074387;28;46555;-81
2023/04/30 04:34:03;;;;;;;;;12.50;11.75;;;;;14.19;82.55;98985.75;5075019;28;45466;-81
2023/04/30 04:36:30;;;;;;;;;9.25;9.25;;;;;14.15;82.33;98987.72;5074715;28;45462;-80
2023/04/30 04:39:00;;;;;;;;;9.50;9.50;;;;;14.14;82.86;98990.47;5073302;28;45454;-80
2023/04/30 04:41:37;;;;;;;;;12.25;11.75;;;;;14.13;82.70;98991.41;5073955;28;46529;-81
2023/04/30 04:44:03;;;;;;;;;11.00;11.00;;;;;14.10;82.46;98988.91;5074449;27;45380;-81
2023/04/30 04:46:30;;;;;;;;;8.50;8.50;;;;;14.08;82.90;98989.00;5073847;27;45435;-81
2023/04/30 04:48:56;;;;;;;;;11.25;9.75;;;;;14.06;83.31;99000.66;5073519;28;45404;-81
2023/04/30 04:51:22;;;;;;;;;11.50;11.00;;;;;14.05;82.76;98991.00;5073470;28;46667;-80
2023/04/30 04:53:48;;;;;;;;;11.25;10.00;;;;;14.06;82.68;98998.00;5073015;27;45558;-81
2023/04/30 04:56:13;;;;;;;;;16.00;11.75;;;;;14.07;82.37;98997.06;5072967;27;45415;-81
2023/04/30 04:58:38;;;;;;;;;11.25;11.25;;;;;14.07;82.39;98997.06;5074214;27;45398;-81
2023/04/30 05:01:04;;;;;;;;;14.00;12.00;;;;;14.04;82.19;99003.41;5073858;28;46066;-82
2023/04/30 05:03:31;;;;;;;;;13.75;9.50;;;;;14.02;81.93;99007.91;5072876;28;45458;-81
2023/04/30 05:05:57;;;;;;;;;10.75;10.50;;;;;13.99;82.29;99005.44;5074317;28;45513;-81
2023/04/30 05:08:22;;;;;;;;;10.75;10.75;;;;;14.00;82.09;99009.78;5073005;28;45425;-81
2023/04/30 05:10:48;;;;;;;;;14.25;12.00;;;;;13.97;81.99;98997.56;5074061;28;46357;-81
2023/04/30 05:13:13;;;;;;;;;15.50;12.00;;;;;13.96;81.77;99006.47;5074211;27;45398;-82
2023/04/30 05:15:38;;;;;;;;;9.75;9.00;;;;;13.97;82.42;98997.56;5073828;27;45345;-82
2023/04/30 05:18:04;;;;;;;;;11.50;11.25;;;;;13.98;82.75;99004.59;5074040;27;45284;-82
2023/04/30 05:20:29;;;;;;;;;11.75;11.50;;;;;14.02;82.47;98997.31;5074105;28;46004;-82
2023/04/30 05:22:55;;;;;;;;;16.75;12.75;;;;;14.05;81.99;99013.06;5074122;27;45335;-81
2023/04/30 05:25:20;;;;;;;;;13.25;10.50;;;;;14.06;81.31;99005.97;5075319;28;45631;-81
2023/04/30 05:27:45;;;;;;;;;12.25;12.25;;;;;14.05;81.37;98985.69;5077374;27;45375;-81
2023/04/30 05:30:11;;;;;;;;;10.75;10.75;;;;;14.06;81.21;99004.16;5076516;28;46343;-82
2023/04/30 05:32:36;;;;;;;;;12.50;11.00;;;;;14.09;81.22;99000.47;5074566;28;45385;-82
2023/04/30 05:35:02;;;;;;;;;13.75;13.00;;;;;14.13;81.15;99004.66;5077326;28;45467;-81
2023/04/30 05:37:28;;;;;;;;;10.25;9.00;;;;;14.17;80.77;99006.19;5075982;28;45459;-81
2023/04/30 05:39:53;;;;;;;;;10.00;9.00;;;;;14.19;80.83;99014.94;5073155;27;46663;-80
2023/04/30 05:42:19;;;;;;;;;11.50;11.50;;;;;14.22;80.34;99017.41;5076950;27;45434;-81
2023/04/30 05:44:45;;;;;;;;;13.25;12.50;;;;;14.20;80.29;99020.16;5077111;28;45384;-81
2023/04/30 05:47:10;;;;;;;;;14.00;11.50;;;;;14.20;79.99;99017.50;5076740;28;45431;-81
2023/04/30 05:49:36;;;;;;;;;12.75;12.25;;;;;14.20;79.99;99017.50;5076401;28;46273;-81
2023/04/30 05:52:02;;;;;;;;;13.00;13.00;;;;;14.20;80.07;99009.53;5076003;28;45416;-81
2023/04/30 05:54:28;;;;;;;;;12.75;12.75;;;;;14.19;79.65;99012.28;5077552;27;45383;-82
2023/04/30 05:56:54;;;;;;;;;15.50;14.25;;;;;14.14;79.52;99017.81;5077359;27;45521;-82
2023/04/30 05:59:19;;;;;;;;;12.25;11.00;;;;;14.12;79.85;99013.56;5075460;28;47896;-82
2023/04/30 06:01:44;;;;;;;;;16.50;15.00;;;;;14.07;79.81;99023.56;5077609;27;45415;-82
2023/04/30 06:04:10;;;;;;;;;10.25;10.00;;;;;14.06;80.14;99009.47;5077036;27;45387;-82
2023/04/30 06:06:36;;;;;;;;;15.00;12.00;;;;;14.12;79.90;99016.19;5076858;28;45521;-82
2023/04/30 06:09:02;;;;;;;;;13.50;12.00;;;;;14.15;79.67;99018.69;5075080;28;46116;-81
2023/04/30 06:11:28;;;;;;;;;9.50;7.25;;;;;14.18;79.63;99007.91;5071795;28;45376;-82
2023/04/30 06:13:54;;;;;;;;;11.75;11.75;;;;;14.22;79.56;99012.97;5072396;28;45388;-82
2023/04/30 06:16:20;;;;;;;;;14.50;13.25;;;;;14.28;79.13;99011.75;5068018;28;45508;-82
2023/04/30 06:18:45;;;;;;;;;12.00;10.00;;;;;14.35;78.84;99015.78;5076649;27;46364;-82
2023/04/30 06:21:11;;;;;;;;;12.75;12.25;;;;;14.38;79.36;99017.41;5076731;27;45365;-82
2023/04/30 06:23:36;;;;;;;;;13.50;12.75;;;;;14.42;78.93;99025.09;5076746;27;45914;-82
2023/04/30 06:26:02;;;;;;;;;12.00;12.00;;;;;14.47;78.52;99023.03;5076815;28;45327;-82
2023/04/30 06:28:27;;;;;;;;;12.00;11.75;;;;;14.51;78.51;99021.94;5076736;27;45478;-82
2023/04/30 06:30:54;;;;;;;;;12.75;10.25;;;;;14.56;78.58;99019.03;5076364;27;45377;-82
2023/04/30 06:33:19;;;;;;;;;11.50;11.50;;;;;14.59;78.33;99026.78;5076488;28;45263;-82
2023/04/30 06:35:45;;;;;;;;;11.50;9.50;;;;;14.58;77.78;99022.41;5075761;27;45493;-83
2023/04/30 06:38:10;;;;;;;;;15.00;13.00;;;;;14.60;78.04;99023.19;5074536;28;46774;-83
2023/04/30 06:40:36;;;;;;;;;11.25;10.00;;;;;14.65;77.98;99023.78;5076769;27;45408;-83
2023/04/30 06:43:01;;;;;;;;;13.00;13.00;;;;;14.72;77.91;99025.16;5076483;27;45306;-82
2023/04/30 06:45:27;;;;;;;;;14.25;14.25;;;;;14.77;77.56;99028.38;5076255;27;45316;-83
2023/04/30 06:47:53;;;;;;;;;15.00;15.00;;;;;14.79;77.20;99031.78;5075466;27;45434;-83
2023/04/30 06:50:20;;;;;;;;;14.25;14.25;;;;;14.83;77.06;99035.97;5075485;27;45451;-83
2023/04/30 06:52:45;;;;;;;;;9.25;9.00;;;;;14.85;76.61;99027.94;5075226;28;45423;-66
2023/04/30 06:55:11;;;;;;;;;14.50;12.25;;;;;14.90;76.89;99032.03;5074464;27;45646;-60
2023/04/30 06:57:36;;;;;;;;;13.50;13.25;;;;;15.00;76.16;99021.72;5074031;28;45414;-60
2023/04/30 07:00:06;;;;;;;;;14.75;14.00;;;;;15.06;76.29;99028.47;5065608;28;45533;-60
2023/04/30 07:02:31;;;;;;;;;14.50;14.50;;;;;15.04;75.79;99033.00;5071294;28;45558;-60
2023/04/30 07:04:57;;;;;;;;;13.00;13.00;;;;;15.00;75.92;99030.53;5074715;28;45558;-60
2023/04/30 07:07:23;;;;;;;;;12.25;12.25;;;;;14.98;75.94;99032.41;5073745;27;45490;-60
2023/04/30 07:09:49;;;;;;;;;12.50;12.50;;;;;15.00;75.76;99035.84;5072607;27;45425;-66
2023/04/30 07:12:14;;;;;;;;;17.25;16.00;;;;;15.05;75.64;99040.88;5074403;27;45572;-69
2023/04/30 07:14:40;;;;;;;;;12.25;10.75;;;;;15.06;76.03;99036.44;5074246;27;45472;-69
2023/04/30 07:17:05;;;;;;;;;15.75;14.00;;;;;15.08;75.61;99042.50;5074692;27;45438;-69
2023/04/30 07:19:31;;;;;;;;;14.50;14.00;;;;;15.04;75.30;99041.81;5074228;27;45425;-69
2023/04/30 07:21:57;;;;;;;;;12.00;11.25;;;;;15.00;75.70;99045.59;5074345;27;45522;-69
2023/04/30 07:24:22;;;;;;;;;12.00;11.75;;;;;14.95;75.41;99052.97;5074533;27;45427;-69
2023/04/30 07:26:47;;;;;;;;;21.25;17.25;;;;;14.86;75.24;99057.03;5073964;27;46182;-69
2023/04/30 07:29:13;;;;;;;;;18.75;13.25;;;;;14.79;75.58;99050.38;5074141;27;45410;-69
2023/04/30 07:31:38;;;;;;;;;16.00;14.25;;;;;14.77;75.92;99054.91;5074220;27;45540;-69
2023/04/30 07:34:04;;;;;;;;;17.75;14.50;;;;;14.80;75.83;99060.03;5074493;27;45426;-69
2023/04/30 07:36:29;;;;;;;;;14.00;14.00;;;;;14.83;75.74;99054.56;5073953;27;45869;-69
2023/04/30 07:38:55;;;;;;;;;14.25;13.50;;;;;14.86;75.50;99064.16;5072675;28;45422;-71
2023/04/30 07:41:20;;;;;;;;;18.75;15.75;;;;;14.94;75.69;99056.56;5074106;27;45397;-69
2023/04/30 07:43:46;;;;;;;;;12.25;11.25;;;;;15.05;75.50;99055.97;5074453;27;45588;-69
2023/04/30 07:46:11;;;;;;;;;13.00;12.00;;;;;15.11;75.15;99056.44;5069274;27;45467;-69
2023/04/30 07:48:37;;;;;;;;;17.75;16.00;;;;;15.19;74.82;99053.34;5073673;28;45411;-69
2023/04/30 07:51:03;;;;;;;;;16.25;16.25;;;;;15.28;74.29;99055.41;5072321;28;45735;-69
2023/04/30 07:53:29;;;;;;;;;15.00;15.00;;;;;15.31;73.68;99050.78;5073271;27;45409;-69
2023/04/30 07:55:54;;;;;;;;;13.00;13.00;;;;;15.33;73.47;99064.81;5073166;28;46416;-69
2023/04/30 07:58:20;;;;;;;;;16.75;16.00;;;;;15.30;73.03;99064.16;5073611;27;45638;-69
2023/04/30 08:00:45;;;;;;;;;16.00;16.00;;;;;15.26;73.32;99066.13;5071265;28;45683;-69
2023/04/30 08:03:11;;;;;;;;;13.00;10.25;;;;;15.25;72.98;99059.09;5073289;28;45413;-70
2023/04/30 08:05:36;;;;;;;;;11.75;11.75;;;;;15.26;73.11;99062.63;5073290;28;46116;-69
2023/04/30 08:08:02;;;;;;;;;17.50;16.75;;;;;15.28;72.43;99056.28;5073594;27;45442;-69
2023/04/30 08:10:28;;;;;;;;;19.50;16.75;;;;;15.27;72.49;99059.88;5072845;27;45414;-69
2023/04/30 08:12:53;;;;;;;;;16.75;16.75;;;;;15.27;72.90;99057.22;5073837;27;45375;-69
2023/04/30 08:15:21;;;;;;;;;16.00;15.25;;;;;15.36;72.79;99054.03;5071934;27;46151;-69
2023/04/30 08:17:50;;;;;;;;;12.25;12.25;;;;;15.49;72.88;99074.53;5073027;27;45408;-70
2023/04/30 08:20:17;;;;;;;;;14.25;13.25;;;;;15.56;71.82;99076.75;5073418;27;45501;-69
2023/04/30 08:22:43;;;;;;;;;18.50;17.50;;;;;15.55;71.11;99079.47;5072669;27;45425;-70
2023/04/30 08:25:12;;;;;;;;;15.00;14.00;;;;;15.52;71.61;99077.00;5073055;27;45566;-67
2023/04/30 08:27:38;;;;;;;;;18.75;15.00;;;;;15.49;71.79;99083.34;5073190;27;45410;-69
2023/04/30 08:30:05;;;;;;;;;16.75;15.50;;;;;15.45;71.54;99073.00;5072674;27;45511;-70
2023/04/30 08:32:34;;;;;;;;;20.75;18.50;;;;;15.41;71.62;99087.44;5072441;27;45579;-69
2023/04/30 08:35:00;;;;;;;;;16.75;15.75;;;;;15.36;72.06;99100.97;5072557;27;45559;-69
2023/04/30 08:37:25;;;;;;;;;16.25;15.00;;;;;15.26;72.16;99095.34;5071824;27;45388;-69
2023/04/30 08:39:50;;;;;;;;;13.50;13.50;;;;;15.24;72.29;99096.41;5072852;27;45395;-69
2023/04/30 08:42:17;;;;;;;;;19.00;18.00;;;;;15.30;72.26;99104.00;5071272;28;45514;-69
2023/04/30 08:44:45;;;;;;;;;16.25;15.50;;;;;15.34;72.21;99101.06;5071932;27;46618;-70
2023/04/30 08:47:14;;;;;;;;;14.00;13.50;;;;;15.42;72.28;99108.56;5071929;28;45506;-70
2023/04/30 08:49:40;;;;;;;;;18.75;15.25;;;;;15.49;72.05;99115.22;5072709;27;45367;-69
2023/04/30 08:52:07;;;;;;;;;19.75;18.25;;;;;15.49;71.62;99112.56;5072762;28;45366;-69
2023/04/30 08:54:35;;;;;;;;;16.50;14.50;;;;;15.50;71.76;99103.66;5072566;27;45465;-69
2023/04/30 08:57:00;;;;;;;;;14.00;13.50;;;;;15.54;72.04;99112.31;5072599;27;45455;-70
2023/04/30 08:59:26;;;;;;;;;10.00;9.00;;;;;15.54;71.35;99114.97;5074227;27;45670;-69
2023/04/30 09:01:51;;;;;;;;;18.25;17.50;;;;;15.53;71.57;99111.44;5076301;27;45524;-70
2023/04/30 09:04:17;;;;;;;;;14.50;13.50;;;;;15.57;71.64;99126.31;5076206;27;46531;-69
2023/04/30 09:06:42;;;;;;;;;18.75;18.50;;;;;15.58;71.18;99101.44;5076602;27;45422;-71
2023/04/30 09:09:13;;;;;;;;;18.75;15.00;;;;;15.54;71.27;99123.78;5076360;27;45470;-68
2023/04/30 09:11:39;;;;;;;;;19.75;15.25;;;;;15.47;71.45;99098.53;5075873;27;45478;-68
2023/04/30 09:14:05;;;;;;;;;16.75;16.75;;;;;15.47;71.53;99122.44;5075379;27;45446;-67
2023/04/30 09:16:48;;;;;;;;;19.75;18.25;;;;;15.42;71.70;99124.50;5075822;27;45423;-67
2023/04/30 09:19:29;;;;;;;;;17.50;15.25;;;;;15.42;72.14;99107.72;5075841;28;45443;-68
2023/04/30 09:21:55;;;;;;;;;19.75;18.25;;;;;15.41;71.79;99120.16;5076037;27;45489;-68
2023/04/30 09:24:21;;;;;;;;;18.50;17.50;;;;;15.40;71.76;99117.59;5075388;27;45417;-68
2023/04/30 09:26:47;;;;;;;;;26.25;20.00;;;;;15.37;71.58;99118.63;5075302;27;45349;-68
2023/04/30 09:29:13;;;;;;;;;19.25;18.00;;;;;15.33;72.02;99115.31;5074387;28;45495;-68
2023/04/30 09:31:43;;;;;;;;;19.50;17.50;;;;;15.30;71.86;99126.09;5075112;27;45447;-68
2023/04/30 09:34:09;;;;;;;;;19.25;17.50;;;;;15.26;72.42;99126.38;5075703;27;46346;-68
2023/04/30 09:36:34;;;;;;;;;20.25;20.00;;;;;15.26;72.20;99129.03;5074918;27;45421;-68
2023/04/30 09:39:12;;;;;;;;;17.25;16.00;;;;;15.21;72.19;99121.34;5067652;27;45371;-69
2023/04/30 09:41:37;;;;;;;;;16.50;16.50;;;;;15.17;72.45;99132.22;5075151;28;45592;-68
2023/04/30 09:44:03;;;;;;;;;20.00;20.00;;;;;15.09;72.82;99118.53;5074995;28;46674;-69
2023/04/30 09:46:34;;;;;;;;;17.00;17.00;;;;;15.08;72.94;99122.16;5074975;27;45860;-69
2023/04/30 09:49:06;;;;;;;;;20.50;20.50;;;;;15.05;73.00;99122.34;5075424;27;45361;-69
2023/04/30 09:51:31;;;;;;;;;9.75;8.50;;;;;15.03;73.13;99133.03;5074867;27;45448;-69
2023/04/30 09:53:57;;;;;;;;;19.75;19.25;;;;;14.97;72.90;99138.69;5073809;28;47325;-69
2023/04/30 09:56:24;;;;;;;;;19.50;16.25;;;;;14.91;73.33;99139.06;5073731;28;45451;-60
2023/04/30 09:58:55;;;;;;;;;17.25;16.25;;;;;14.87;73.78;99140.19;5073131;28;45495;-69
2023/04/30 10:01:26;;;;;;;;;17.00;16.25;;;;;14.88;73.54;99128.63;5074896;28;45411;-69
2023/04/30 10:03:52;;;;;;;;;17.75;16.50;;;;;14.88;73.57;99123.31;5075013;27;46321;-68
2023/04/30 10:06:19;;;;;;;;;20.75;17.75;;;;;14.88;73.59;99133.94;5075074;27;45566;-70
2023/04/30 10:08:49;;;;;;;;;18.25;17.50;;;;;14.91;73.44;99133.75;5075075;27;45443;-69
2023/04/30 10:11:20;;;;;;;;;14.75;14.75;;;;;14.94;73.60;99149.47;5075177;27;45325;-69
2023/04/30 10:14:10;;;;;;;;;19.50;18.00;;;;;14.90;73.04;99140.00;5075119;28;46209;-70
2023/04/30 10:16:44;;;;;;;;;17.25;17.25;;;;;14.85;73.51;99142.06;5075006;28;45448;-70
2023/04/30 10:19:17;;;;;;;;;21.00;18.50;;;;;14.83;73.57;99144.81;5075284;28;45366;-69
2023/04/30 10:21:45;;;;;;;;;18.25;17.25;;;;;14.79;73.41;99159.19;5074862;27;45412;-69
2023/04/30 10:24:13;;;;;;;;;15.75;14.75;;;;;14.78;73.55;99138.03;5075034;28;45505;-72
2023/04/30 10:26:40;;;;;;;;;16.75;15.75;;;;;14.76;73.99;99151.38;5074614;27;45382;-70
2023/04/30 10:29:06;;;;;;;;;20.50;17.75;;;;;14.75;73.92;99144.38;5074941;27;45485;-69
2023/04/30 10:31:32;;;;;;;;;17.25;17.25;;;;;14.77;73.91;99144.28;5072974;28;45542;-69
2023/04/30 10:34:09;;;;;;;;;19.50;17.75;;;;;14.77;73.92;99157.56;5074811;27;46480;-69
2023/04/30 10:36:47;;;;;;;;;21.50;19.25;;;;;14.77;74.08;99141.63;5075134;28;45319;-69
2023/04/30 10:39:17;;;;;;;;;11.75;11.75;;;;;14.77;73.93;99155.75;5074866;28;45438;-69
2023/04/30 10:41:48;;;;;;;;;15.75;15.00;;;;;14.81;73.58;99137.88;5066726;28;45590;-69
2023/04/30 10:44:14;;;;;;;;;16.50;16.00;;;;;14.77;73.30;99150.44;5074421;27;45540;-69
2023/04/30 10:46:40;;;;;;;;;20.50;20.50;;;;;14.74;73.53;99125.91;5074698;27;45508;-69
2023/04/30 10:49:07;;;;;;;;;19.50;14.25;;;;;14.71;73.62;99134.03;5074592;28;45524;-69
2023/04/30 10:51:57;;;;;;;;;21.00;19.50;;;;;14.65;73.88;99128.13;5072004;27;45499;-69
2023/04/30 10:54:35;;;;;;;;;16.75;16.75;;;;;14.63;73.80;99127.34;5074239;27;45394;-69
2023/04/30 10:57:18;;;;;;;;;21.75;19.50;;;;;14.66;73.95;99136.94;5093240;27;45446;-69
2023/04/30 11:00:00;;;;;;;;;13.00;12.75;;;;;14.66;74.15;99143.09;5098078;27;45571;-69
2023/04/30 11:02:42;;;;;;;;;19.25;19.00;;;;;14.64;73.82;99144.13;5066576;27;45662;-69
2023/04/30 11:05:18;;;;;;;;;16.75;16.75;;;;;14.65;74.02;99136.09;5072762;28;45535;-69
2023/04/30 11:07:49;;;;;;;;;22.75;20.75;;;;;14.65;74.09;99143.19;5060764;28;45464;-68
2023/04/30 11:10:15;;;;;;;;;17.00;17.00;;;;;14.63;74.04;99134.44;5073416;27;45455;-69
2023/04/30 11:12:47;;;;;;;;;20.00;19.00;;;;;14.63;74.24;99151.22;5072599;27;45447;-69
2023/04/30 11:15:16;;;;;;;;;21.25;15.00;;;;;14.63;74.11;99129.16;5070328;27;46558;-69
2023/04/30 11:17:47;;;;;;;;;19.00;19.00;;;;;14.61;74.41;99153.09;5070477;27;45562;-69
2023/04/30 11:20:17;;;;;;;;;19.75;19.50;;;;;14.64;74.36;99149.44;5070978;28;45333;-69
2023/04/30 11:22:43;;;;;;;;;23.25;20.25;;;;;14.61;74.19;99145.16;5069115;27;45415;-69